createdAt,value
2018-05-13T00:01:10.135Z,7.83
2018-05-13T00:03:41.681Z,8.50
2018-05-13T00:06:13.006Z,8.23
2018-05-13T00:08:43.415Z,7.63
2018-05-13T00:11:13.484Z,7.50
2018-05-13T00:13:43.588Z,7.33
2018-05-13T00:16:13.600Z,6.87
2018-05-13T00:18:43.834Z,7.23
2018-05-13T00:21:13.948Z,6.67
2018-05-13T00:23:43.980Z,7.67
2018-05-13T00:26:14.080Z,7.57
2018-05-13T00:28:44.198Z,7.20
2018-05-13T00:31:14.281Z,6.80
2018-05-13T00:33:44.355Z,6.87
2018-05-13T00:36:14.391Z,6.47
2018-05-13T00:38:44.479Z,6.10
2018-05-13T00:41:14.639Z,6.50
2018-05-13T00:43:44.758Z,6.00
2018-05-13T00:46:14.858Z,6.63
2018-05-13T00:48:44.879Z,6.57
2018-05-13T00:51:14.908Z,6.50
2018-05-13T00:53:44.579Z,6.10
2018-05-13T00:56:14.661Z,6.07
2018-05-13T00:58:44.752Z,6.30
2018-05-13T01:01:14.452Z,6.87
2018-05-13T01:03:45.021Z,6.37
2018-05-13T01:06:18.797Z,6.83
2018-05-13T01:08:49.303Z,6.53
2018-05-13T01:11:20.160Z,6.90
2018-05-13T01:13:50.886Z,6.17
2018-05-13T01:16:21.400Z,6.87
2018-05-13T01:18:52.532Z,6.30
2018-05-13T01:21:22.647Z,7.20
2018-05-13T01:23:53.802Z,7.97
2018-05-13T01:26:24.868Z,8.13
2018-05-13T01:28:55.592Z,7.73
2018-05-13T01:31:26.339Z,7.70
2018-05-13T01:33:57.732Z,7.97
2018-05-13T01:36:27.795Z,8.17
2018-05-13T01:38:58.334Z,8.43
2018-05-13T01:41:28.444Z,8.40
2018-05-13T01:43:58.157Z,7.23
2018-05-13T01:46:28.775Z,7.53
2018-05-13T01:48:58.492Z,7.90
2018-05-13T01:51:29.223Z,6.80
2018-05-13T01:54:00.740Z,7.43
2018-05-13T01:56:30.906Z,7.20
2018-05-13T01:59:01.380Z,7.10
2018-05-13T02:01:31.456Z,7.17
2018-05-13T02:04:03.547Z,7.40
2018-05-13T02:06:34.152Z,6.80
2018-05-13T02:09:05.196Z,7.23
2018-05-13T02:11:35.192Z,6.80
2018-05-13T02:14:05.332Z,6.60
2018-05-13T02:16:35.956Z,6.67
2018-05-13T02:19:07.415Z,6.50
2018-05-13T02:21:38.255Z,7.23
2018-05-13T02:24:09.151Z,6.83
2018-05-13T02:26:38.982Z,6.50
2018-05-13T02:29:09.828Z,6.90
2018-05-13T02:31:41.550Z,6.63
2018-05-13T02:34:11.480Z,6.80
2018-05-13T02:36:41.748Z,6.43
2018-05-13T02:39:12.588Z,6.57
2018-05-13T02:41:44.283Z,7.07
2018-05-13T02:44:15.387Z,7.70
2018-05-13T02:46:45.088Z,7.60
2018-05-13T02:49:15.540Z,6.10
2018-05-13T02:51:46.140Z,6.63
2018-05-13T02:54:15.855Z,6.57
2018-05-13T02:56:45.567Z,6.70
2018-05-13T02:59:16.772Z,7.93
2018-05-13T03:01:47.870Z,8.70
2018-05-13T03:04:18.588Z,8.80
2018-05-13T03:06:48.600Z,9.27
2018-05-13T03:09:18.678Z,8.97
2018-05-13T03:11:48.388Z,9.53
2018-05-13T03:14:18.354Z,9.37
2018-05-13T03:16:49.691Z,9.67
2018-05-13T03:19:21.949Z,9.93
2018-05-13T03:21:52.795Z,9.90
2018-05-13T03:24:23.044Z,10.10
2018-05-13T03:26:53.156Z,9.20
2018-05-13T03:29:23.278Z,9.17
2018-05-13T03:31:54.801Z,9.53
2018-05-13T03:34:24.950Z,9.70
2018-05-13T03:36:55.697Z,9.87
2018-05-13T03:39:25.993Z,9.57
2018-05-13T03:41:57.868Z,10.00
2018-05-13T03:44:28.908Z,10.43
2018-05-13T03:46:59.232Z,9.97
2018-05-13T03:49:30.596Z,10.27
2018-05-13T03:52:00.627Z,11.40
2018-05-13T03:54:32.328Z,10.43
2018-05-13T03:57:01.980Z,9.57
2018-05-13T03:59:32.711Z,7.73
2018-05-13T04:02:03.025Z,7.10
2018-05-13T04:04:33.394Z,7.27
2018-05-13T04:07:03.472Z,7.23
2018-05-13T04:09:45.679Z,7.80
2018-05-13T04:15:30.824Z,8.13
2018-05-13T04:18:00.862Z,8.00
2018-05-13T04:20:32.344Z,8.50
2018-05-13T04:23:02.852Z,9.33
2018-05-13T04:25:33.800Z,9.60
2018-05-13T04:28:04.736Z,10.90
2018-05-13T04:30:35.788Z,10.73
2018-05-13T04:33:05.615Z,10.90
2018-05-13T04:35:36.930Z,11.90
2018-05-13T04:38:07.469Z,10.40
2018-05-13T04:40:37.613Z,9.47
2018-05-13T04:43:07.709Z,7.90
2018-05-13T04:45:37.737Z,8.30
2018-05-13T04:48:08.203Z,8.30
2018-05-13T04:50:38.276Z,8.60
2018-05-13T04:53:08.357Z,8.23
2018-05-13T04:55:38.432Z,7.47
2018-05-13T04:58:09.164Z,8.33
2018-05-13T05:00:38.868Z,7.90
2018-05-13T05:03:09.488Z,7.90
2018-05-13T05:05:39.570Z,9.37
2018-05-13T05:08:09.639Z,10.13
2018-05-13T05:10:41.311Z,8.80
2018-05-13T05:13:12.400Z,9.00
2018-05-13T05:15:42.764Z,10.07
2018-05-13T05:18:13.916Z,7.00
2018-05-13T05:20:43.715Z,7.03
2018-05-13T05:23:14.547Z,8.63
2018-05-13T05:25:46.707Z,8.00
2018-05-13T05:28:16.836Z,8.80
2018-05-13T05:30:48.532Z,9.00
2018-05-13T05:33:20.088Z,10.07
2018-05-13T05:36:07.229Z,10.17
2018-05-13T05:38:38.677Z,9.93
2018-05-13T05:41:08.744Z,9.27
2018-05-13T05:43:38.427Z,9.43
2018-05-13T05:46:09.000Z,9.90
2018-05-13T05:48:40.138Z,8.60
2018-05-13T05:51:11.380Z,8.33
2018-05-13T05:53:41.813Z,9.33
2018-05-13T05:56:12.244Z,10.13
2018-05-13T05:58:42.966Z,9.10
2018-05-13T06:01:14.173Z,9.27
2018-05-13T06:03:44.233Z,9.47
2018-05-13T06:06:14.352Z,10.03
2018-05-13T06:08:44.468Z,8.50
2018-05-13T06:11:14.479Z,8.23
2018-05-13T06:13:45.413Z,8.07
2018-05-13T06:16:15.971Z,9.43
2018-05-13T06:18:47.793Z,8.80
2018-05-13T06:21:19.899Z,8.37
2018-05-13T06:23:50.304Z,9.17
2018-05-13T06:26:20.739Z,8.33
2018-05-13T06:28:51.521Z,9.13
2018-05-13T06:31:23.327Z,8.73
2018-05-13T06:33:53.768Z,9.30
2018-05-13T06:36:24.088Z,9.37
2018-05-13T06:38:54.705Z,9.23
2018-05-13T06:41:24.940Z,9.23
2018-05-13T06:43:56.301Z,9.70
2018-05-13T06:46:26.400Z,9.63
2018-05-13T06:48:56.134Z,10.47
2018-05-13T06:51:26.167Z,8.77
2018-05-13T06:53:55.939Z,10.00
2018-05-13T06:56:25.979Z,9.70
2018-05-13T06:58:55.886Z,11.00
2018-05-13T07:01:25.931Z,9.37
2018-05-13T07:03:56.232Z,9.00
2018-05-13T07:06:26.398Z,8.80
2018-05-13T07:08:56.459Z,10.03
2018-05-13T07:11:28.227Z,9.77
2018-05-13T07:13:58.347Z,10.03
2018-05-13T07:16:28.490Z,10.33
2018-05-13T07:18:58.660Z,10.30
2018-05-13T07:21:28.784Z,9.43
2018-05-13T07:23:58.910Z,9.03
2018-05-13T07:26:28.932Z,8.70
2018-05-13T07:28:58.981Z,8.63
2018-05-13T07:31:29.009Z,7.63
2018-05-13T07:33:59.111Z,7.30
2018-05-13T07:36:29.238Z,6.80
2018-05-13T07:38:59.332Z,6.67
2018-05-13T07:41:29.457Z,5.97
2018-05-13T07:44:00.708Z,6.93
2018-05-13T07:46:30.736Z,6.40
2018-05-13T07:49:00.848Z,6.57
2018-05-13T07:51:31.326Z,6.37
2018-05-13T07:54:07.047Z,7.00
2018-05-13T07:56:37.541Z,8.70
2018-05-13T07:59:07.584Z,6.73
2018-05-13T08:01:37.692Z,7.33
2018-05-13T08:04:07.824Z,6.43
2018-05-13T08:06:37.935Z,6.83
2018-05-13T08:09:08.051Z,6.90
2018-05-13T08:11:38.099Z,6.33
2018-05-13T08:14:08.233Z,6.37
2018-05-13T08:16:38.417Z,5.67
2018-05-13T08:19:08.509Z,6.47
2018-05-13T08:21:38.174Z,5.93
2018-05-13T08:24:08.259Z,5.33
2018-05-13T08:26:38.376Z,6.17
2018-05-13T08:29:08.512Z,6.20
2018-05-13T08:31:38.627Z,5.87
2018-05-13T08:34:08.904Z,6.30
2018-05-13T08:36:38.968Z,5.87
2018-05-13T08:39:09.085Z,10.97
2018-05-13T08:41:39.095Z,6.33
2018-05-13T08:44:09.136Z,5.30
2018-05-13T08:46:39.347Z,5.50
2018-05-13T08:49:09.451Z,4.77
2018-05-13T08:51:39.564Z,5.07
2018-05-13T08:54:11.375Z,5.37
2018-05-13T08:56:41.539Z,6.17
2018-05-13T08:59:11.613Z,5.90
2018-05-13T09:01:41.691Z,5.17
2018-05-13T09:04:13.623Z,5.30
2018-05-13T09:06:43.891Z,5.93
2018-05-13T09:09:14.103Z,6.30
2018-05-13T09:11:44.589Z,6.37
2018-05-13T09:14:14.961Z,7.00
2018-05-13T09:16:57.892Z,7.30
2018-05-13T09:19:28.012Z,6.63
2018-05-13T09:21:58.488Z,7.37
2018-05-13T09:24:28.742Z,8.13
2018-05-13T09:26:58.868Z,6.60
2018-05-13T09:29:29.101Z,7.83
2018-05-13T09:31:59.274Z,6.43
2018-05-13T09:34:31.472Z,7.53
2018-05-13T09:37:01.636Z,7.67
2018-05-13T09:39:31.834Z,7.70
2018-05-13T09:42:01.951Z,7.77
2018-05-13T09:44:32.021Z,6.70
2018-05-13T09:47:02.092Z,6.50
2018-05-13T09:49:32.232Z,6.97
2018-05-13T09:52:02.275Z,7.33
2018-05-13T09:54:32.815Z,6.70
2018-05-13T09:57:02.984Z,6.30
2018-05-13T09:59:33.111Z,7.33
2018-05-13T10:02:03.259Z,6.50
2018-05-13T10:04:33.383Z,6.00
2018-05-13T10:07:03.494Z,5.63
2018-05-13T10:09:33.720Z,4.47
2018-05-13T10:12:03.806Z,4.70
2018-05-13T10:14:33.849Z,5.60
2018-05-13T10:17:03.975Z,4.77
2018-05-13T10:19:34.101Z,3.50
2018-05-13T10:22:04.284Z,3.10
2018-05-13T10:24:34.408Z,3.17
2018-05-13T10:27:04.449Z,3.30
2018-05-13T10:29:34.619Z,2.80
2018-05-13T10:32:04.656Z,3.10
2018-05-13T10:34:34.784Z,3.10
2018-05-13T10:37:04.905Z,3.40
2018-05-13T10:39:35.028Z,3.60
2018-05-13T10:42:06.277Z,3.50
2018-05-13T10:44:36.427Z,3.17
2018-05-13T10:47:07.562Z,2.93
2018-05-13T10:49:37.683Z,2.70
2018-05-13T10:52:07.775Z,3.00
2018-05-13T10:54:37.903Z,2.70
2018-05-13T10:57:07.969Z,2.17
2018-05-13T10:59:38.012Z,2.43
2018-05-13T11:02:08.039Z,2.10
2018-05-13T11:04:38.125Z,2.37
2018-05-13T11:07:08.200Z,2.30
2018-05-13T11:09:38.288Z,1.90
2018-05-13T11:12:08.406Z,2.00
2018-05-13T11:14:38.557Z,1.90
2018-05-13T11:17:08.668Z,2.10
2018-05-13T11:19:38.720Z,1.57
2018-05-13T11:22:08.923Z,1.20
2018-05-13T11:24:39.031Z,1.80
2018-05-13T11:27:09.285Z,1.70
2018-05-13T11:29:39.356Z,1.80
2018-05-13T11:32:09.444Z,1.33
2018-05-13T11:34:39.517Z,1.50
2018-05-13T11:37:09.615Z,1.20
2018-05-13T11:39:39.805Z,1.30
2018-05-13T11:42:09.887Z,1.50
2018-05-13T11:44:39.988Z,1.10
2018-05-13T11:47:10.009Z,1.40
2018-05-13T11:49:40.168Z,1.40
2018-05-13T11:52:10.292Z,1.50
2018-05-13T11:54:40.471Z,1.70
2018-05-13T11:57:10.567Z,0.80
2018-05-13T11:59:40.600Z,0.97
2018-05-13T12:02:10.733Z,1.07
2018-05-13T12:04:40.797Z,1.00
2018-05-13T12:07:10.869Z,0.90
2018-05-13T12:09:40.991Z,0.90
2018-05-13T12:12:11.311Z,1.00
2018-05-13T12:14:42.459Z,1.17
2018-05-13T12:17:14.680Z,1.40
2018-05-13T12:19:44.800Z,1.30
2018-05-13T12:22:15.001Z,1.10
2018-05-13T12:24:45.450Z,1.47
2018-05-13T12:27:16.601Z,1.30
2018-05-13T12:29:47.537Z,1.70
2018-05-13T12:32:29.896Z,1.47
2018-05-13T12:35:00.220Z,1.90
2018-05-13T12:37:30.387Z,1.97
2018-05-13T12:40:00.754Z,2.10
2018-05-13T12:42:30.990Z,2.10
2018-05-13T12:45:01.105Z,2.20
2018-05-13T12:47:31.320Z,2.30
2018-05-13T12:50:01.607Z,2.30
2018-05-13T12:52:31.945Z,2.30
2018-05-13T12:55:02.198Z,2.37
2018-05-13T12:57:32.523Z,5.93
2018-05-13T13:00:02.639Z,2.50
2018-05-13T13:02:34.580Z,2.50
2018-05-13T13:05:04.825Z,3.07
2018-05-13T13:07:35.119Z,2.50
2018-05-13T13:10:05.261Z,2.70
2018-05-13T13:12:35.848Z,2.70
2018-05-13T13:15:06.749Z,2.40
2018-05-13T13:17:44.387Z,3.10
2018-05-13T13:20:15.794Z,2.53
2018-05-13T13:22:47.165Z,2.73
2018-05-13T13:25:17.768Z,3.07
2018-05-13T13:27:47.899Z,2.97
2018-05-13T13:30:18.052Z,3.00
2018-05-13T13:32:48.350Z,3.10
2018-05-13T13:35:18.453Z,2.70
2018-05-13T13:37:48.687Z,3.27
2018-05-13T13:40:18.902Z,2.90
2018-05-13T13:42:49.024Z,3.20
2018-05-13T13:45:22.765Z,4.80
2018-05-13T13:47:52.857Z,3.57
2018-05-13T13:50:22.955Z,2.90
2018-05-13T13:52:53.124Z,2.87
2018-05-13T13:55:25.874Z,3.50
2018-05-13T13:57:58.782Z,2.90
2018-05-13T14:00:29.268Z,2.80
2018-05-13T14:02:59.719Z,2.87
2018-05-13T14:05:29.401Z,3.10
2018-05-13T14:07:59.766Z,3.30
2018-05-13T14:10:29.981Z,3.40
2018-05-13T14:13:00.308Z,3.10
2018-05-13T14:15:30.616Z,3.40
2018-05-13T14:18:01.935Z,3.63
2018-05-13T14:20:32.194Z,3.03
2018-05-13T14:23:02.207Z,2.70
2018-05-13T14:25:38.693Z,3.07
2018-05-13T14:28:08.796Z,3.07
2018-05-13T14:30:38.891Z,3.20
2018-05-13T14:33:09.256Z,3.60
2018-05-13T14:35:39.363Z,3.70
2018-05-13T14:38:09.495Z,3.67
2018-05-13T14:40:39.814Z,4.00
2018-05-13T14:43:10.402Z,4.03
2018-05-13T14:45:40.874Z,6.50
2018-05-13T14:48:14.464Z,3.60
2018-05-13T14:50:44.717Z,5.17
2018-05-13T14:53:23.323Z,4.70
2018-05-13T14:55:53.409Z,4.50
2018-05-13T14:58:24.848Z,4.40
2018-05-13T15:00:57.422Z,5.93
2018-05-13T15:03:28.555Z,5.90
2018-05-13T15:05:59.089Z,7.13
2018-05-13T15:08:29.205Z,7.43
2018-05-13T15:11:00.296Z,5.43
2018-05-13T15:13:30.419Z,5.47
2018-05-13T15:16:01.156Z,6.17
2018-05-13T15:18:32.653Z,5.83
2018-05-13T15:21:04.390Z,6.93
2018-05-13T15:23:35.113Z,7.40
2018-05-13T15:26:05.540Z,7.17
2018-05-13T15:28:45.257Z,8.87
2018-05-13T15:31:21.224Z,8.37
2018-05-13T15:33:51.982Z,8.80
2018-05-13T15:36:22.077Z,9.33
2018-05-13T15:38:52.499Z,8.67
2018-05-13T15:41:23.347Z,9.67
2018-05-13T15:43:53.440Z,9.10
2018-05-13T15:46:23.507Z,10.10
2018-05-13T15:48:53.715Z,10.83
2018-05-13T15:51:23.902Z,10.67
2018-05-13T15:53:54.270Z,11.03
2018-05-13T15:56:24.404Z,11.17
2018-05-13T16:01:36.041Z,12.70
2018-05-13T16:04:06.102Z,13.43
2018-05-13T16:06:36.253Z,14.57
2018-05-13T16:09:06.407Z,13.83
2018-05-13T16:11:36.548Z,12.93
2018-05-13T16:14:06.996Z,12.30
2018-05-13T16:16:37.097Z,14.60
2018-05-13T16:19:07.259Z,15.67
2018-05-13T16:21:37.384Z,15.30
2018-05-13T16:24:07.449Z,16.47
2018-05-13T16:26:37.593Z,15.43
2018-05-13T16:29:07.640Z,15.83
2018-05-13T16:31:37.757Z,16.13
2018-05-13T16:34:07.879Z,18.03
2018-05-13T16:36:38.371Z,20.60
2018-05-13T16:39:08.595Z,17.87
2018-05-13T16:41:38.771Z,19.63
2018-05-13T16:44:08.940Z,19.00
2018-05-13T16:46:39.249Z,18.90
2018-05-13T16:49:09.490Z,18.27
2018-05-13T16:51:39.608Z,17.90
2018-05-13T16:54:09.781Z,17.30
2018-05-13T16:56:39.853Z,17.07
2018-05-13T16:59:09.968Z,18.87
2018-05-13T17:01:40.106Z,18.63
2018-05-13T17:04:10.207Z,19.13
2018-05-13T17:06:40.390Z,18.53
2018-05-13T17:09:10.736Z,19.67
2018-05-13T17:11:41.293Z,20.97
2018-05-13T17:14:11.780Z,19.63
2018-05-13T17:16:42.134Z,20.03
2018-05-13T17:19:12.476Z,18.07
2018-05-13T17:21:42.809Z,18.87
2018-05-13T17:24:13.143Z,19.07
2018-05-13T17:26:44.567Z,20.40
2018-05-13T17:29:15.071Z,20.60
2018-05-13T17:31:46.624Z,20.80
2018-05-13T17:34:17.038Z,20.47
2018-05-13T17:36:47.558Z,19.47
2018-05-13T17:39:17.915Z,19.77
2018-05-13T17:41:48.455Z,19.40
2018-05-13T17:44:18.795Z,21.37
2018-05-13T17:46:49.226Z,21.27
2018-05-13T17:49:19.612Z,22.10
2018-05-13T17:51:49.892Z,20.77
2018-05-13T17:54:20.308Z,19.67
2018-05-13T17:56:50.477Z,20.77
2018-05-13T17:59:20.750Z,22.87
2018-05-13T18:01:51.242Z,21.03
2018-05-13T18:04:22.237Z,22.07
2018-05-13T18:06:52.894Z,23.97
2018-05-13T18:09:23.277Z,21.90
2018-05-13T18:11:53.821Z,23.20
2018-05-13T18:14:24.233Z,24.77
2018-05-13T18:16:54.602Z,24.60
2018-05-13T18:19:25.723Z,24.33
2018-05-13T18:21:56.226Z,22.97
2018-05-13T18:24:26.566Z,23.23
2018-05-13T18:26:56.993Z,25.73
2018-05-13T18:29:27.303Z,24.40
2018-05-13T18:31:57.791Z,24.17
2018-05-13T18:34:28.273Z,24.20
2018-05-13T18:36:59.000Z,31.53
2018-05-13T18:39:29.386Z,25.10
2018-05-13T18:42:00.127Z,24.50
2018-05-13T18:44:30.568Z,24.17
2018-05-13T18:47:00.934Z,23.73
2018-05-13T18:49:31.508Z,23.93
2018-05-13T18:52:02.355Z,24.23
2018-05-13T18:54:32.879Z,24.80
2018-05-13T18:57:03.454Z,24.03
2018-05-13T18:59:33.977Z,25.53
2018-05-13T19:02:05.553Z,24.73
2018-05-13T19:04:36.332Z,25.27
2018-05-13T19:07:07.725Z,23.17
2018-05-13T19:09:38.174Z,25.13
2018-05-13T19:12:08.940Z,24.63
2018-05-13T19:20:13.875Z,26.07
2018-05-13T19:22:44.168Z,26.50
2018-05-13T19:25:14.641Z,27.37
2018-05-13T19:27:45.108Z,26.60
2018-05-13T19:30:15.650Z,27.07
2018-05-13T19:32:46.095Z,26.57
2018-05-13T19:35:16.275Z,26.97
2018-05-13T19:37:46.183Z,27.10
2018-05-13T19:40:16.355Z,27.23
2018-05-13T19:42:46.575Z,31.23
2018-05-13T19:45:16.299Z,27.37
2018-05-13T19:47:46.470Z,28.83
2018-05-13T19:50:16.740Z,29.20
2018-05-13T19:52:48.057Z,28.53
2018-05-13T19:55:18.407Z,29.13
2018-05-13T19:57:48.443Z,27.73
2018-05-13T20:00:18.933Z,30.17
2018-05-13T20:02:49.595Z,30.50
2018-05-13T20:05:19.815Z,30.37
2018-05-13T20:07:50.249Z,33.33
2018-05-13T20:10:20.867Z,30.73
2018-05-13T20:12:51.143Z,29.40
2018-05-13T20:15:21.533Z,30.83
2018-05-13T20:17:51.792Z,32.00
2018-05-13T20:20:23.208Z,32.53
2018-05-13T20:23:35.489Z,32.10
2018-05-13T20:26:05.900Z,31.67
2018-05-13T20:28:36.056Z,31.67
2018-05-13T20:31:06.178Z,33.70
2018-05-13T20:33:36.283Z,32.77
2018-05-13T20:36:06.415Z,32.13
2018-05-13T20:38:36.539Z,32.27
2018-05-13T20:41:06.657Z,32.97
2018-05-13T20:43:36.718Z,33.57
2018-05-13T20:46:06.840Z,32.40
2018-05-13T20:48:36.591Z,32.40
2018-05-13T20:51:07.622Z,32.73
2018-05-13T20:53:38.184Z,32.77
2018-05-13T20:56:08.603Z,33.83
2018-05-13T20:58:38.824Z,32.20
2018-05-13T21:01:08.539Z,32.87
2018-05-13T21:03:38.662Z,32.93
2018-05-13T21:06:08.780Z,32.73
2018-05-13T21:08:38.895Z,32.80
2018-05-13T21:11:09.303Z,32.60
2018-05-13T21:13:39.544Z,32.93
2018-05-13T21:16:09.699Z,30.53
2018-05-13T21:18:39.780Z,31.37
2018-05-13T21:21:09.899Z,30.17
2018-05-13T21:23:40.076Z,31.20
2018-05-13T21:26:10.548Z,32.87
2018-05-13T21:28:40.616Z,33.27
2018-05-13T21:31:10.655Z,32.20
2018-05-13T21:33:40.804Z,33.37
2018-05-13T21:36:10.976Z,33.43
2018-05-13T21:38:41.040Z,32.03
2018-05-13T21:41:10.751Z,32.57
2018-05-13T21:43:40.872Z,30.80
2018-05-13T21:46:10.994Z,33.10
2018-05-13T21:48:41.120Z,31.87
2018-05-13T21:51:11.239Z,32.10
2018-05-13T21:53:41.358Z,32.70
2018-05-13T21:56:11.476Z,33.83
2018-05-13T21:58:41.647Z,32.60
2018-05-13T22:01:11.767Z,33.07
2018-05-13T22:03:41.832Z,32.40
2018-05-13T22:06:11.844Z,30.70
2018-05-13T22:08:41.976Z,29.67
2018-05-13T22:11:12.453Z,26.90
2018-05-13T22:13:42.525Z,27.90
2018-05-13T22:16:12.640Z,25.33
2018-05-13T22:18:42.691Z,27.23
2018-05-13T22:21:12.820Z,27.03
2018-05-13T22:23:43.004Z,28.40
2018-05-13T22:26:13.120Z,28.07
2018-05-13T22:28:43.213Z,28.67
2018-05-13T22:31:13.366Z,25.23
2018-05-13T22:33:43.452Z,24.40
2018-05-13T22:36:13.508Z,22.27
2018-05-13T22:38:43.781Z,22.77
2018-05-13T22:41:13.840Z,21.27
2018-05-13T22:43:43.554Z,19.47
2018-05-13T22:46:13.608Z,20.70
2018-05-13T22:48:43.283Z,17.90
2018-05-13T22:51:13.711Z,15.23
2018-05-13T22:53:43.763Z,14.23
2018-05-13T22:56:13.842Z,13.60
2018-05-13T22:58:43.961Z,15.00
2018-05-13T23:01:14.072Z,15.20
2018-05-13T23:03:44.169Z,14.90
2018-05-13T23:06:15.011Z,14.10
2018-05-13T23:08:45.024Z,12.87
2018-05-13T23:11:15.046Z,14.43
2018-05-13T23:13:45.166Z,13.10
2018-05-13T23:16:15.208Z,14.03
2018-05-13T23:18:45.294Z,12.40
2018-05-13T23:21:15.392Z,14.00
2018-05-13T23:23:45.528Z,12.87
2018-05-13T23:26:15.192Z,14.30
2018-05-13T23:28:45.308Z,14.40
2018-05-13T23:31:15.424Z,15.53
2018-05-13T23:33:45.543Z,18.23
2018-05-13T23:36:15.240Z,20.40
2018-05-13T23:38:44.970Z,15.97
2018-05-13T23:41:15.119Z,14.33
2018-05-13T23:43:46.721Z,14.30
2018-05-13T23:46:17.224Z,14.83
2018-05-13T23:48:47.718Z,13.60
2018-05-13T23:51:18.734Z,11.47
2018-05-13T23:53:49.228Z,10.70
2018-05-13T23:56:20.520Z,9.70
2018-05-13T23:58:52.689Z,8.67
